Time;durP1;ratioP1;P1;durP2;ratioP2;P2;SDS_P1;SDS_P2;PMS_P1;PMS_P2;Temp;Humidity;BMP_temperature;BMP_pressure;BME280_temperature;BME280_humidity;BME280_pressure;Samples;Min_cycle;Max_cycle;Signal;HPM_P1;HPM_P2
2021/09/18 00:01:04;;;;;;;6.63;5.37;;;14.90;99.90;;;;;;5114863;28;20496;-66
2021/09/18 00:03:30;;;;;;;6.05;5.10;;;14.90;99.90;;;;;;5114753;28;20086;-66
2021/09/18 00:05:56;;;;;;;7.30;4.47;;;15.00;99.90;;;;;;5114769;28;20503;-66
2021/09/18 00:08:22;;;;;;;8.00;4.85;;;15.00;99.90;;;;;;5114789;28;20031;-66
2021/09/18 00:10:47;;;;;;;7.63;5.40;;;14.90;99.90;;;;;;5114632;28;20499;-66
2021/09/18 00:13:13;;;;;;;6.45;4.30;;;14.90;99.90;;;;;;5115153;27;20249;-66
2021/09/18 00:15:38;;;;;;;8.07;4.53;;;14.80;99.90;;;;;;5114804;28;20036;-66
2021/09/18 00:18:04;;;;;;;10.27;4.40;;;14.70;99.90;;;;;;5114682;28;20437;-66
2021/09/18 00:20:30;;;;;;;8.55;4.75;;;14.70;99.90;;;;;;5114561;27;20019;-66
2021/09/18 00:22:56;;;;;;;;;;;14.70;99.90;;;;;;5115449;28;20039;-66
2021/09/18 00:25:22;;;;;;;9.02;5.43;;;14.70;99.90;;;;;;5114823;28;19911;-67
2021/09/18 00:27:48;;;;;;;6.87;5.20;;;14.70;99.90;;;;;;5115241;28;20023;-67
2021/09/18 00:30:13;;;;;;;6.55;5.07;;;14.70;99.90;;;;;;5114674;28;20016;-67
2021/09/18 00:32:39;;;;;;;6.47;5.05;;;14.70;99.90;;;;;;5114566;28;20362;-67
2021/09/18 00:35:05;;;;;;;6.32;4.95;;;14.70;99.90;;;;;;5114466;28;20016;-67
2021/09/18 00:37:31;;;;;;;;;;;14.70;99.90;;;;;;5114730;28;20421;-67
2021/09/18 00:39:57;;;;;;;7.75;4.88;;;14.70;99.90;;;;;;5114598;28;19904;-67
2021/09/18 00:42:23;;;;;;;6.97;4.88;;;14.60;99.90;;;;;;5114369;28;20101;-68
2021/09/18 00:44:51;;;;;;;4.78;4.28;;;14.60;99.90;;;;;;5114260;28;20540;-66
2021/09/18 00:47:17;;;;;;;7.05;4.32;;;14.60;99.90;;;;;;5113781;28;20365;-66
2021/09/18 00:49:43;;;;;;;;;;;14.50;99.90;;;;;;5114309;28;20400;-67
2021/09/18 00:52:09;;;;;;;8.02;5.47;;;14.50;99.90;;;;;;5114125;28;19931;-67
2021/09/18 00:54:34;;;;;;;7.13;4.80;;;14.40;99.90;;;;;;5114329;28;20054;-67
2021/09/18 00:57:01;;;;;;;5.68;4.75;;;14.40;99.90;;;;;;5114276;28;20356;-67
2021/09/18 00:59:27;;;;;;;10.60;4.80;;;14.30;99.90;;;;;;5114298;28;20027;-67
2021/09/18 01:01:53;;;;;;;7.45;4.93;;;14.20;99.90;;;;;;5114463;28;20030;-67
2021/09/18 01:04:20;;;;;;;;;;;14.00;99.90;;;;;;5115102;28;20125;-68
2021/09/18 01:06:45;;;;;;;5.85;4.55;;;13.90;99.90;;;;;;5114106;28;19973;-67
2021/09/18 01:09:11;;;;;;;7.67;5.83;;;13.80;99.90;;;;;;5113843;28;20066;-66
2021/09/18 01:11:37;;;;;;;7.20;5.32;;;13.70;99.90;;;;;;5114077;28;20680;-67
2021/09/18 01:14:03;;;;;;;6.30;5.30;;;13.60;99.90;;;;;;5114315;28;20020;-67
2021/09/18 01:16:28;;;;;;;7.57;5.78;;;13.50;99.90;;;;;;5112641;28;20189;-68
2021/09/18 01:18:54;;;;;;;7.88;5.10;;;13.40;99.90;;;;;;5113594;28;20036;-67
2021/09/18 01:21:20;;;;;;;8.97;5.90;;;13.30;99.90;;;;;;5114090;28;20032;-68
2021/09/18 01:23:45;;;;;;;7.70;5.25;;;13.20;99.90;;;;;;5113896;28;20268;-68
2021/09/18 01:26:11;;;;;;;5.80;5.20;;;13.20;99.90;;;;;;5114161;28;20497;-67
2021/09/18 01:28:41;;;;;;;7.72;6.10;;;13.20;99.90;;;;;;5113849;28;20757;-67
2021/09/18 01:31:08;;;;;;;8.57;6.38;;;13.20;99.90;;;;;;5112048;28;20032;-66
2021/09/18 01:33:35;;;;;;;7.65;6.10;;;13.20;99.90;;;;;;5111855;28;20126;-67
2021/09/18 01:36:02;;;;;;;;;;;13.10;99.90;;;;;;5114340;28;20062;-67
2021/09/18 01:38:28;;;;;;;9.82;6.15;;;13.10;99.90;;;;;;5113214;28;20364;-67
2021/09/18 01:40:54;;;;;;;6.97;5.80;;;13.10;99.90;;;;;;5113366;28;20111;-67
2021/09/18 01:43:19;;;;;;;11.32;6.43;;;13.10;99.90;;;;;;5113383;27;20024;-67
2021/09/18 01:45:45;;;;;;;7.25;6.53;;;13.20;99.90;;;;;;5112411;28;20059;-67
2021/09/18 01:48:13;;;;;;;7.90;6.20;;;13.20;99.90;;;;;;5113835;28;20053;-67
2021/09/18 01:51:04;;;;;;;8.70;6.38;;;13.20;99.90;;;;;;5113253;28;20030;-67
2021/09/18 01:53:29;;;;;;;9.55;6.20;;;13.20;99.90;;;;;;5113111;28;20084;-67
2021/09/18 01:55:55;;;;;;;8.93;6.32;;;13.20;99.90;;;;;;5113256;28;20024;-66
2021/09/18 01:58:22;;;;;;;9.50;6.28;;;13.20;99.90;;;;;;5113081;28;20040;-66
2021/09/18 02:00:54;;;;;;;9.07;6.68;;;13.10;99.90;;;;;;5112529;28;20030;-66
2021/09/18 02:03:20;;;;;;;8.23;6.93;;;13.20;99.90;;;;;;5111458;28;20541;-67
2021/09/18 02:05:46;;;;;;;9.48;5.80;;;13.20;99.90;;;;;;5113011;28;20495;-67
2021/09/18 02:08:12;;;;;;;;;;;13.20;99.90;;;;;;5113235;28;20090;-66
2021/09/18 02:10:38;;;;;;;8.40;6.10;;;13.20;99.90;;;;;;5111763;28;19912;-66
2021/09/18 02:13:06;;;;;;;9.60;6.35;;;13.10;99.90;;;;;;5113241;28;20016;-67
2021/09/18 02:15:32;;;;;;;7.45;6.25;;;13.10;99.90;;;;;;5112752;28;20031;-66
2021/09/18 02:17:58;;;;;;;8.05;6.40;;;13.00;99.90;;;;;;5111117;28;20546;-66
2021/09/18 02:20:28;;;;;;;8.20;6.53;;;13.00;99.90;;;;;;5112744;28;20178;-67
2021/09/18 02:22:55;;;;;;;10.50;6.40;;;12.90;99.90;;;;;;5112742;28;20023;-68
2021/09/18 02:25:21;;;;;;;9.27;6.93;;;12.80;99.90;;;;;;5112527;28;20092;-67
2021/09/18 02:27:47;;;;;;;8.20;6.28;;;12.80;99.90;;;;;;5112545;28;20031;-66
2021/09/18 02:30:16;;;;;;;8.63;6.47;;;12.70;99.90;;;;;;5113140;28;20012;-66
2021/09/18 02:32:43;;;;;;;9.48;6.55;;;12.70;99.90;;;;;;5112796;28;20036;-66
2021/09/18 02:35:11;;;;;;;7.35;6.05;;;12.70;99.90;;;;;;5112449;28;20023;-66
2021/09/18 02:37:37;;;;;;;7.75;6.70;;;12.60;99.90;;;;;;5112398;28;20365;-66
2021/09/18 02:40:08;;;;;;;8.07;6.55;;;12.50;99.90;;;;;;5112251;28;20020;-66
2021/09/18 02:42:36;;;;;;;10.85;5.97;;;12.50;99.90;;;;;;5112609;28;20561;-66
2021/09/18 02:45:03;;;;;;;8.90;6.32;;;12.50;99.90;;;;;;5112350;28;20046;-66
2021/09/18 02:47:28;;;;;;;;;;;12.50;99.90;;;;;;5112578;28;20038;-66
2021/09/18 02:49:54;;;;;;;8.38;5.97;;;12.50;99.90;;;;;;5110936;28;20300;-66
2021/09/18 02:52:19;;;;;;;7.97;6.67;;;12.50;99.90;;;;;;5112059;28;20079;-66
2021/09/18 02:54:45;;;;;;;7.87;5.80;;;12.40;99.90;;;;;;5112285;28;20257;-66
2021/09/18 02:57:11;;;;;;;8.43;6.30;;;12.40;99.90;;;;;;5112085;28;20114;-66
2021/09/18 02:59:36;;;;;;;7.53;6.33;;;12.40;99.90;;;;;;5112136;28;20030;-66
2021/09/18 03:02:04;;;;;;;8.93;5.60;;;12.40;99.90;;;;;;5112414;28;20734;-66
2021/09/18 03:04:30;;;;;;;9.23;7.00;;;12.40;99.90;;;;;;5111960;28;20075;-65
2021/09/18 03:06:56;;;;;;;7.75;6.20;;;12.40;99.90;;;;;;5110493;28;20028;-66
2021/09/18 03:09:21;;;;;;;10.93;6.00;;;12.40;99.90;;;;;;5111978;28;20429;-66
2021/09/18 03:11:47;;;;;;;7.90;6.40;;;12.50;99.90;;;;;;5114133;28;20020;-66
2021/09/18 03:14:12;;;;;;;9.63;6.30;;;12.50;99.90;;;;;;5116691;28;20258;-66
2021/09/18 03:16:38;;;;;;;11.63;6.67;;;12.40;99.90;;;;;;5117178;28;20038;-66
2021/09/18 03:19:03;;;;;;;6.93;6.07;;;12.30;99.90;;;;;;5116018;28;20186;-66
2021/09/18 03:21:29;;;;;;;7.43;6.33;;;12.30;99.90;;;;;;5116307;28;20364;-65
2021/09/18 03:23:55;;;;;;;9.37;6.17;;;12.20;99.90;;;;;;5116200;28;20767;-66
2021/09/18 03:26:20;;;;;;;7.30;5.37;;;12.20;99.90;;;;;;5114342;28;20375;-66
2021/09/18 03:28:46;;;;;;;10.17;6.27;;;12.20;99.90;;;;;;5115802;28;20034;-66
2021/09/18 03:31:12;;;;;;;7.63;6.10;;;12.10;99.90;;;;;;5115777;28;20022;-66
2021/09/18 03:33:39;;;;;;;6.37;5.77;;;12.10;99.90;;;;;;5115763;28;20035;-66
2021/09/18 03:36:05;;;;;;;9.23;6.15;;;12.00;99.90;;;;;;5115634;28;20365;-66
2021/09/18 03:38:31;;;;;;;7.60;5.57;;;12.00;99.90;;;;;;5115791;28;20357;-67
2021/09/18 03:40:56;;;;;;;9.43;6.38;;;12.00;99.90;;;;;;5115802;28;20020;-66
2021/09/18 03:43:22;;;;;;;11.23;6.07;;;12.00;99.90;;;;;;5114825;28;20024;-66
2021/09/18 03:45:48;;;;;;;8.57;5.73;;;12.00;99.90;;;;;;5115660;28;20019;-66
2021/09/18 03:48:13;;;;;;;7.55;5.60;;;12.10;99.90;;;;;;5115386;28;20028;-66
2021/09/18 03:50:39;;;;;;;8.70;5.77;;;12.10;99.90;;;;;;5115422;28;20034;-66
2021/09/18 03:53:05;;;;;;;7.78;5.85;;;12.10;99.90;;;;;;5115600;28;20137;-66
2021/09/18 03:55:30;;;;;;;10.80;6.47;;;12.10;99.90;;;;;;5115719;28;20023;-66
2021/09/18 03:57:56;;;;;;;10.13;5.70;;;12.00;99.90;;;;;;5115265;28;20383;-65
2021/09/18 04:00:22;;;;;;;10.10;5.83;;;12.00;99.90;;;;;;5115377;28;20066;-66
2021/09/18 04:02:47;;;;;;;10.68;6.00;;;12.00;99.90;;;;;;5115155;28;20273;-66
2021/09/18 04:05:13;;;;;;;6.67;5.90;;;12.00;99.90;;;;;;5115177;28;20534;-66
2021/09/18 04:07:38;;;;;;;8.53;5.97;;;11.90;99.90;;;;;;5114795;28;20053;-66
2021/09/18 04:10:04;;;;;;;7.60;6.17;;;11.90;99.90;;;;;;5115022;28;20039;-66
2021/09/18 04:12:30;;;;;;;9.15;5.57;;;11.90;99.90;;;;;;5114884;28;20030;-66
2021/09/18 04:14:56;;;;;;;7.73;5.70;;;11.90;99.90;;;;;;5115254;28;20437;-66
2021/09/18 04:17:21;;;;;;;6.87;5.63;;;11.90;99.90;;;;;;5114801;28;20023;-66
2021/09/18 04:19:47;;;;;;;6.50;5.77;;;12.00;99.90;;;;;;5114765;28;20035;-66
2021/09/18 04:22:13;;;;;;;6.63;5.93;;;11.90;99.90;;;;;;5114204;28;20049;-66
2021/09/18 04:24:38;;;;;;;8.27;5.73;;;11.90;99.90;;;;;;5114207;28;20024;-67
2021/09/18 04:27:04;;;;;;;9.40;6.03;;;11.90;99.90;;;;;;5114444;28;20766;-66
2021/09/18 04:29:31;;;;;;;7.50;5.50;;;11.90;99.90;;;;;;5114631;28;20024;-65
2021/09/18 04:31:57;;;;;;;7.78;5.85;;;11.90;99.90;;;;;;5114492;28;20102;-66
2021/09/18 04:34:22;;;;;;;8.15;5.35;;;11.80;99.90;;;;;;5114711;28;20016;-66
2021/09/18 04:36:48;;;;;;;10.50;5.90;;;11.80;99.90;;;;;;5114735;28;20064;-66
2021/09/18 04:39:14;;;;;;;10.15;6.22;;;11.70;99.90;;;;;;5114764;28;20023;-66
2021/09/18 04:41:40;;;;;;;10.85;5.65;;;11.70;99.90;;;;;;5114512;28;20057;-66
2021/09/18 04:44:05;;;;;;;7.88;5.70;;;11.70;99.90;;;;;;5114495;28;20020;-66
2021/09/18 04:46:31;;;;;;;8.60;5.90;;;11.70;99.90;;;;;;5114490;28;20076;-66
2021/09/18 04:48:57;;;;;;;12.63;6.40;;;11.70;99.90;;;;;;5114456;28;20254;-66
2021/09/18 04:51:22;;;;;;;8.25;5.90;;;11.70;99.90;;;;;;5114817;28;20047;-66
2021/09/18 04:53:48;;;;;;;11.83;6.23;;;11.80;99.90;;;;;;5114617;28;20030;-66
2021/09/18 04:56:14;;;;;;;7.87;6.37;;;11.80;99.90;;;;;;5114219;28;20742;-66
2021/09/18 04:58:39;;;;;;;9.40;6.33;;;11.90;99.90;;;;;;5114259;28;20444;-66
2021/09/18 05:01:05;;;;;;;7.57;5.90;;;11.90;99.90;;;;;;5113014;28;20408;-66
2021/09/18 05:03:30;;;;;;;6.83;6.03;;;12.00;99.90;;;;;;5113987;28;20407;-66
2021/09/18 05:05:57;;;;;;;9.17;6.57;;;12.10;99.90;;;;;;5114159;28;20632;-66
2021/09/18 05:08:22;;;;;;;9.60;5.63;;;12.10;99.90;;;;;;5113774;28;20054;-66
2021/09/18 05:10:48;;;;;;;7.10;5.80;;;12.10;99.90;;;;;;5113942;28;20023;-67
2021/09/18 05:13:13;;;;;;;7.30;5.50;;;12.20;99.90;;;;;;5114252;28;20268;-67
2021/09/18 05:15:39;;;;;;;11.13;5.80;;;12.20;99.90;;;;;;5114002;28;20463;-67
2021/09/18 05:18:05;;;;;;;6.40;5.73;;;12.20;99.90;;;;;;5113818;28;20028;-67
2021/09/18 05:20:30;;;;;;;11.48;5.70;;;12.20;99.90;;;;;;5114176;28;20455;-67
2021/09/18 05:22:56;;;;;;;7.97;5.75;;;12.30;99.90;;;;;;5113928;27;20481;-67
2021/09/18 05:25:22;;;;;;;10.13;5.20;;;12.30;99.90;;;;;;5113841;28;20099;-68
2021/09/18 05:27:49;;;;;;;10.65;5.85;;;12.30;99.90;;;;;;5113586;28;20051;-67
2021/09/18 05:30:14;;;;;;;7.22;5.20;;;12.30;99.90;;;;;;5113340;28;20224;-66
2021/09/18 05:32:40;;;;;;;8.65;5.20;;;12.40;99.90;;;;;;5114682;28;20062;-67
2021/09/18 05:35:07;;;;;;;7.17;5.30;;;12.40;99.90;;;;;;5115818;28;20034;-67
2021/09/18 05:37:32;;;;;;;8.35;5.65;;;12.50;99.90;;;;;;5112090;28;20272;-67
2021/09/18 05:39:58;;;;;;;12.57;5.67;;;12.40;99.90;;;;;;5113456;28;20420;-67
2021/09/18 05:42:23;;;;;;;7.67;5.50;;;12.40;99.90;;;;;;5113414;28;20388;-67
2021/09/18 05:44:49;;;;;;;8.32;5.22;;;12.40;99.90;;;;;;5113546;28;20043;-67
2021/09/18 05:47:15;;;;;;;7.00;5.30;;;12.30;99.90;;;;;;5111918;28;20123;-66
2021/09/18 05:49:40;;;;;;;6.80;5.13;;;12.30;99.90;;;;;;5114077;28;20024;-66
2021/09/18 05:52:06;;;;;;;8.35;5.20;;;12.20;99.90;;;;;;5113728;28;20059;-66
2021/09/18 05:54:32;;;;;;;6.68;5.53;;;12.20;99.90;;;;;;5111688;28;20055;-66
2021/09/18 05:56:58;;;;;;;9.20;6.25;;;12.10;99.90;;;;;;5113208;28;20039;-66
2021/09/18 05:59:24;;;;;;;10.82;5.82;;;12.10;99.90;;;;;;5113253;28;20032;-66
2021/09/18 06:01:50;;;;;;;7.75;5.70;;;12.10;99.90;;;;;;5113063;28;20019;-66
2021/09/18 06:04:16;;;;;;;6.63;5.40;;;12.10;99.90;;;;;;5112718;28;20118;-66
2021/09/18 06:06:41;;;;;;;7.20;5.28;;;12.10;99.90;;;;;;5112951;28;20569;-66
2021/09/18 06:09:07;;;;;;;6.75;5.18;;;12.20;99.90;;;;;;5112835;28;20209;-66
2021/09/18 06:11:33;;;;;;;7.82;5.00;;;12.30;99.90;;;;;;5112861;28;20468;-66
2021/09/18 06:13:58;;;;;;;8.13;5.50;;;12.30;99.90;;;;;;5112820;28;20114;-67
2021/09/18 06:16:24;;;;;;;6.87;5.53;;;12.40;99.90;;;;;;5112763;28;20086;-66
2021/09/18 06:18:51;;;;;;;9.97;5.03;;;12.50;99.90;;;;;;5112501;28;20257;-66
2021/09/18 06:21:16;;;;;;;;;;;12.60;99.90;;;;;;5112953;28;20269;-66
2021/09/18 06:23:42;;;;;;;7.55;4.93;;;12.60;99.90;;;;;;5112604;28;19926;-66
2021/09/18 06:26:08;;;;;;;7.50;5.28;;;12.70;99.90;;;;;;5112682;28;20406;-66
2021/09/18 06:28:35;;;;;;;7.15;4.78;;;12.90;99.90;;;;;;5112421;28;20461;-66
2021/09/18 06:31:01;;;;;;;5.43;4.50;;;12.90;99.90;;;;;;5112817;28;20362;-66
2021/09/18 06:33:27;;;;;;;6.78;4.40;;;13.00;99.90;;;;;;5112263;28;20030;-66
2021/09/18 06:35:53;;;;;;;6.20;4.40;;;13.10;99.90;;;;;;5112107;28;20451;-65
2021/09/18 06:38:22;;;;;;;7.35;4.45;;;13.20;99.90;;;;;;5112238;28;20059;-66
2021/09/18 06:40:50;;;;;;;6.38;4.95;;;13.20;99.90;;;;;;5112054;28;20026;-66
2021/09/18 06:43:16;;;;;;;6.78;4.38;;;13.30;99.90;;;;;;5112237;28;20028;-66
2021/09/18 06:45:41;;;;;;;8.25;4.35;;;13.40;99.90;;;;;;5112664;28;20081;-66
2021/09/18 06:48:07;;;;;;;4.90;4.33;;;13.40;99.90;;;;;;5116748;28;20028;-66
2021/09/18 06:50:33;;;;;;;4.95;3.97;;;13.50;99.90;;;;;;5116659;27;20763;-65
2021/09/18 06:52:59;;;;;;;4.65;4.13;;;13.50;99.90;;;;;;5116578;28;20038;-66
2021/09/18 06:55:24;;;;;;;6.57;4.43;;;13.60;99.90;;;;;;5116671;28;20031;-66
2021/09/18 06:57:50;;;;;;;7.22;3.90;;;13.60;99.90;;;;;;5116205;28;20183;-67
2021/09/18 07:00:16;;;;;;;4.88;4.13;;;13.60;99.90;;;;;;5116395;28;20035;-66
2021/09/18 07:02:42;;;;;;;6.00;3.92;;;13.60;99.90;;;;;;5116239;28;20503;-66
2021/09/18 07:05:08;;;;;;;4.65;3.60;;;13.70;99.90;;;;;;5116370;28;20040;-65
2021/09/18 07:07:36;;;;;;;;;;;13.80;99.90;;;;;;5117003;28;20411;-66
2021/09/18 07:10:02;;;;;;;4.35;3.92;;;13.80;99.90;;;;;;5116368;28;20399;-64
2021/09/18 07:12:28;;;;;;;5.55;3.83;;;13.90;99.90;;;;;;5116416;28;20066;-64
2021/09/18 07:14:54;;;;;;;6.47;3.65;;;14.00;99.90;;;;;;5116444;28;20039;-65
2021/09/18 07:17:19;;;;;;;4.43;3.85;;;14.00;99.90;;;;;;5116434;28;20130;-65
2021/09/18 07:19:45;;;;;;;4.43;4.03;;;14.10;99.90;;;;;;5116512;28;20027;-65
2021/09/18 07:22:11;;;;;;;6.25;4.20;;;14.20;99.90;;;;;;5116313;28;20410;-65
2021/09/18 07:24:37;;;;;;;7.88;4.00;;;14.30;99.90;;;;;;5115979;28;20039;-65
2021/09/18 07:27:02;;;;;;;4.15;3.75;;;14.40;99.90;;;;;;5115784;28;20031;-66
2021/09/18 07:29:28;;;;;;;4.55;4.03;;;14.50;99.90;;;;;;5115663;27;20034;-65
2021/09/18 07:31:54;;;;;;;5.90;4.33;;;14.60;99.90;;;;;;5114286;28;20027;-65
2021/09/18 07:34:20;;;;;;;3.75;3.38;;;14.70;99.90;;;;;;5115984;28;20640;-65
2021/09/18 07:36:46;;;;;;;;;;;14.80;99.90;;;;;;5116066;28;20031;-65
2021/09/18 07:39:12;;;;;;;4.50;3.88;;;14.90;99.90;;;;;;5115452;28;19910;-65
2021/09/18 07:41:37;;;;;;;5.38;4.05;;;15.00;99.90;;;;;;5115513;28;20068;-65
2021/09/18 07:44:03;;;;;;;4.30;3.47;;;15.10;99.90;;;;;;5115687;28;20500;-64
2021/09/18 07:46:30;;;;;;;4.82;3.55;;;15.20;99.90;;;;;;5115293;28;20023;-65
2021/09/18 07:48:57;;;;;;;5.68;4.00;;;15.20;99.90;;;;;;5115244;28;20024;-66
2021/09/18 07:51:23;;;;;;;5.80;4.18;;;15.30;99.90;;;;;;5115626;28;20206;-66
2021/09/18 07:53:49;;;;;;;7.13;4.45;;;15.40;99.90;;;;;;5117057;28;20500;-67
2021/09/18 07:56:14;;;;;;;5.82;4.25;;;15.50;99.90;;;;;;5116068;28;20031;-66
2021/09/18 07:58:40;;;;;;;6.45;4.53;;;15.60;99.90;;;;;;5115585;28;20115;-69
2021/09/18 08:01:06;;;;;;;10.45;4.85;;;15.70;99.90;;;;;;5115493;28;20387;-68
2021/09/18 08:03:31;;;;;;;9.15;5.00;;;15.90;99.90;;;;;;5115036;27;20028;-68
2021/09/18 08:05:57;;;;;;;7.40;4.60;;;16.00;99.90;;;;;;5115081;28;20035;-68
2021/09/18 08:08:22;;;;;;;8.00;6.32;;;16.00;99.90;;;;;;5114891;28;20277;-68
2021/09/18 08:10:48;;;;;;;6.78;5.10;;;16.10;99.90;;;;;;5115571;28;20027;-68
2021/09/18 08:13:14;;;;;;;6.95;5.60;;;16.10;99.90;;;;;;5117476;28;20019;-68
2021/09/18 08:15:40;;;;;;;;;;;16.20;99.90;;;;;;5116455;28;20023;-68
2021/09/18 08:18:06;;;;;;;5.93;5.03;;;16.30;99.90;;;;;;5115287;28;20375;-68
2021/09/18 08:20:31;;;;;;;7.22;5.40;;;16.30;99.90;;;;;;5115114;28;20477;-66
2021/09/18 08:22:57;;;;;;;8.30;5.25;;;16.30;99.90;;;;;;5115259;28;20052;-66
2021/09/18 08:25:23;;;;;;;6.97;5.00;;;16.40;99.90;;;;;;5113711;28;20057;-67
2021/09/18 08:27:48;;;;;;;6.63;4.82;;;16.50;99.90;;;;;;5114741;28;20036;-65
2021/09/18 08:30:15;;;;;;;6.50;4.78;;;16.50;99.90;;;;;;5114882;28;20032;-65
2021/09/18 08:32:41;;;;;;;;;;;16.60;99.90;;;;;;5115556;28;20032;-65
2021/09/18 08:35:07;;;;;;;7.15;4.22;;;16.70;99.90;;;;;;5115592;28;19929;-66
2021/09/18 08:37:32;;;;;;;;;;;17.30;99.90;;;;;;5113762;28;20119;-67
2021/09/18 08:39:58;;;;;;;5.00;3.20;;;19.30;99.90;;;;;;5113319;28;19903;-67
2021/09/18 08:42:26;;;;;;;6.93;3.65;;;22.00;99.90;;;;;;5114609;28;20055;-67
2021/09/18 08:44:52;;;;;;;4.25;3.22;;;24.70;97.50;;;;;;5114616;28;20032;-67
2021/09/18 08:47:18;;;;;;;;;;;26.70;92.50;;;;;;5114995;28;20026;-67
2021/09/18 08:49:43;;;;;;;6.25;3.50;;;27.50;90.30;;;;;;5115314;28;19926;-67
2021/09/18 08:52:09;;;;;;;5.22;2.53;;;28.20;87.00;;;;;;5115605;28;20020;-67
2021/09/18 08:54:39;;;;;;;4.25;2.30;;;29.70;83.50;;;;;;5114915;28;20023;-67
2021/09/18 08:57:05;;;;;;;3.95;2.50;;;31.00;78.40;;;;;;5113709;28;20024;-67
2021/09/18 08:59:31;;;;;;;2.45;2.17;;;31.40;75.20;;;;;;5112636;27;20691;-66
2021/09/18 09:02:09;;;;;;;2.35;2.15;;;32.10;74.40;;;;;;5112541;28;20137;-67
2021/09/18 09:04:35;;;;;;;3.28;2.25;;;33.10;71.30;;;;;;5112456;28;20739;-67
2021/09/18 09:07:01;;;;;;;2.90;2.20;;;34.40;68.20;;;;;;5112395;28;20084;-66
2021/09/18 09:09:34;;;;;;;3.15;1.92;;;33.60;64.00;;;;;;5111966;28;20495;-66
2021/09/18 09:12:00;;;;;;;2.50;1.90;;;33.00;65.60;;;;;;5112873;28;20018;-67
2021/09/18 09:14:43;;;;;;;2.53;2.33;;;34.00;65.10;;;;;;5113814;28;20020;-68
2021/09/18 09:17:08;;;;;;;3.42;2.40;;;34.80;62.40;;;;;;5114373;28;20027;-65
2021/09/18 09:19:40;;;;;;;3.10;2.40;;;35.90;61.40;;;;;;5114569;28;20027;-66
2021/09/18 09:22:05;;;;;;;3.10;2.30;;;36.90;57.90;;;;;;5114425;28;20053;-66
2021/09/18 09:24:31;;;;;;;2.90;2.42;;;37.00;56.60;;;;;;5114369;28;20106;-66
2021/09/18 09:27:11;;;;;;;3.25;2.53;;;37.70;55.90;;;;;;5114077;28;20483;-66
2021/09/18 09:29:42;;;;;;;3.80;2.90;;;37.00;55.50;;;;;;5113560;28;20028;-67
2021/09/18 09:32:28;;;;;;;5.40;3.13;;;36.70;55.70;;;;;;5112956;28;20054;-67
2021/09/18 09:34:55;;;;;;;3.53;2.40;;;35.80;55.40;;;;;;5114679;28;20090;-67
2021/09/18 09:37:22;;;;;;;7.65;3.15;;;35.10;56.20;;;;;;5113799;28;20072;-67
2021/09/18 09:39:53;;;;;;;2.45;2.25;;;35.50;55.90;;;;;;5113962;28;20058;-67
2021/09/18 09:42:30;;;;;;;3.95;2.65;;;34.60;54.70;;;;;;5113551;28;20047;-67
2021/09/18 09:45:18;;;;;;;3.75;2.60;;;33.30;56.60;;;;;;5114318;28;20417;-68
2021/09/18 09:47:46;;;;;;;3.00;2.42;;;32.30;58.60;;;;;;5114016;27;20610;-68
2021/09/18 09:50:14;;;;;;;4.18;2.00;;;31.50;58.80;;;;;;5113737;28;20031;-67
2021/09/18 09:52:42;;;;;;;2.15;2.05;;;32.10;59.30;;;;;;5113564;28;20106;-68
2021/09/18 09:55:16;;;;;;;3.53;2.10;;;32.80;57.70;;;;;;5111871;28;20109;-71
2021/09/18 09:57:55;;;;;;;4.20;2.10;;;33.80;57.10;;;;;;5114340;28;20026;-69
2021/09/18 10:00:20;;;;;;;2.33;2.13;;;33.80;55.90;;;;;;5112111;28;20053;-69
2021/09/18 10:02:46;;;;;;;2.28;1.98;;;34.20;55.60;;;;;;5113374;28;20102;-69
2021/09/18 10:05:16;;;;;;;2.03;1.83;;;33.20;56.00;;;;;;5113540;28;20491;-69
2021/09/18 10:07:43;;;;;;;3.28;1.73;;;33.10;55.60;;;;;;5112974;28;20557;-66
2021/09/18 10:10:10;;;;;;;3.20;2.05;;;33.90;54.80;;;;;;5113823;28;20129;-67
2021/09/18 10:12:37;;;;;;;2.05;1.95;;;33.30;56.10;;;;;;5113734;28;20088;-67
2021/09/18 10:15:08;;;;;;;2.42;2.10;;;32.50;56.20;;;;;;5113548;28;20019;-66
2021/09/18 10:17:37;;;;;;;1.88;1.60;;;33.10;56.20;;;;;;5113224;28;20053;-65
2021/09/18 10:20:15;;;;;;;2.58;2.05;;;33.00;55.00;;;;;;5112876;28;20023;-65
2021/09/18 10:25:34;;;;;;;2.88;2.15;;;31.70;56.80;;;;;;5113457;28;20034;-66
2021/09/18 10:28:09;;;;;;;2.75;1.85;;;31.70;57.70;;;;;;5112907;28;20027;-66
2021/09/18 10:30:45;;;;;;;3.08;2.13;;;32.90;56.20;;;;;;5113125;28;20399;-66
2021/09/18 10:33:29;;;;;;;3.28;2.10;;;33.20;54.90;;;;;;5113214;28;20040;-67
2021/09/18 10:35:58;;;;;;;2.30;1.50;;;34.00;55.10;;;;;;5112737;28;20478;-67
2021/09/18 10:38:26;;;;;;;1.98;1.60;;;34.70;52.70;;;;;;5112539;28;20154;-67
2021/09/18 10:40:55;;;;;;;2.22;1.67;;;34.20;52.80;;;;;;5112918;28;20028;-64
2021/09/18 10:43:31;;;;;;;1.35;1.25;;;33.00;53.70;;;;;;5113117;28;20368;-65
2021/09/18 10:45:58;;;;;;;1.63;1.40;;;33.20;54.00;;;;;;5113000;28;20028;-65
2021/09/18 10:48:40;;;;;;;1.98;1.60;;;32.90;53.30;;;;;;5112665;28;20015;-67
2021/09/18 10:51:06;;;;;;;1.60;1.50;;;32.30;53.20;;;;;;5113420;28;20020;-65
2021/09/18 10:54:17;;;;;;;1.75;1.40;;;32.80;52.90;;;;;;5112910;28;20334;-67
2021/09/18 10:57:03;;;;;;;1.48;1.20;;;32.40;52.90;;;;;;5109966;28;20058;-67
2021/09/18 10:59:48;;;;;;;2.67;1.25;;;30.80;53.60;;;;;;5113033;28;20472;-67
2021/09/18 11:02:52;;;;;;;1.38;1.23;;;29.50;55.50;;;;;;5112976;28;20056;-65
2021/09/18 11:05:20;;;;;;;1.75;1.40;;;28.30;56.10;;;;;;5106438;28;20040;-65
2021/09/18 11:07:47;;;;;;;1.75;1.50;;;26.70;59.70;;;;;;5112280;28;20099;-65
2021/09/18 11:10:36;;;;;;;1.48;1.38;;;25.50;62.60;;;;;;5112531;28;20100;-65
2021/09/18 11:13:08;;;;;;;2.28;1.80;;;24.50;64.10;;;;;;5112924;28;20023;-63
2021/09/18 11:15:58;;;;;;;3.08;1.75;;;23.80;66.30;;;;;;5113276;28;20023;-64
2021/09/18 11:18:37;;;;;;;2.67;1.75;;;23.50;67.80;;;;;;5113360;28;20070;-65
2021/09/18 11:21:16;;;;;;;2.00;1.70;;;23.40;68.60;;;;;;5113009;28;20028;-66
2021/09/18 11:23:55;;;;;;;2.00;1.77;;;23.30;69.50;;;;;;5113180;28;20024;-65
2021/09/18 11:26:39;;;;;;;1.75;1.50;;;23.00;70.50;;;;;;5112659;28;20102;-66
2021/09/18 11:29:23;;;;;;;1.70;1.30;;;22.90;71.10;;;;;;5110903;28;20023;-63
2021/09/18 11:32:07;;;;;;;1.58;1.42;;;22.90;71.30;;;;;;5110830;28;20023;-64
2021/09/18 11:34:47;;;;;;;2.10;1.90;;;22.80;70.80;;;;;;5115248;28;20020;-63
2021/09/18 11:37:43;;;;;;;2.03;1.50;;;22.60;70.90;;;;;;5115449;28;20031;-63
2021/09/18 11:40:10;;;;;;;1.73;1.50;;;22.60;71.80;;;;;;5102090;28;20028;-64
2021/09/18 11:42:39;;;;;;;;;;;22.50;71.80;;;;;;5116666;28;20127;-63
2021/09/18 11:45:05;;;;;;;2.28;1.80;;;22.40;72.70;;;;;;5115350;28;19912;-63
2021/09/18 11:47:34;;;;;;;3.10;1.80;;;22.40;72.70;;;;;;5114460;28;20102;-64
2021/09/18 11:50:15;;;;;;;2.42;1.80;;;22.40;73.20;;;;;;5115908;28;20023;-64
2021/09/18 11:52:40;;;;;;;2.83;2.00;;;22.40;72.50;;;;;;5115760;28;20041;-64
2021/09/18 11:55:23;;;;;;;2.38;1.60;;;22.30;71.50;;;;;;5115668;28;20477;-65
2021/09/18 11:58:05;;;;;;;2.58;1.77;;;22.20;71.70;;;;;;5115422;28;20031;-64
2021/09/18 12:00:30;;;;;;;2.65;2.17;;;22.20;71.90;;;;;;5115178;28;20020;-64
2021/09/18 12:02:57;;;;;;;4.05;1.95;;;22.30;73.70;;;;;;5115018;28;20030;-63
2021/09/18 12:05:24;;;;;;;7.00;2.15;;;22.40;72.30;;;;;;5115213;27;20071;-63
2021/09/18 12:07:51;;;;;;;3.25;2.30;;;22.40;72.90;;;;;;5115246;28;20034;-68
2021/09/18 12:10:18;;;;;;;2.88;1.85;;;22.50;71.50;;;;;;5115244;28;20027;-66
2021/09/18 12:12:46;;;;;;;2.47;2.28;;;22.60;72.20;;;;;;5115518;28;20020;-68
2021/09/18 12:15:12;;;;;;;2.10;1.90;;;22.60;73.20;;;;;;5115715;28;20020;-65
2021/09/18 12:17:40;;;;;;;2.45;2.25;;;22.60;73.20;;;;;;5115116;28;20029;-67
2021/09/18 12:20:12;;;;;;;2.30;2.00;;;22.60;73.50;;;;;;5115216;27;20024;-69
2021/09/18 12:22:38;;;;;;;2.42;1.98;;;22.50;73.60;;;;;;5115129;28;20081;-67
2021/09/18 12:25:05;;;;;;;4.43;2.58;;;22.50;75.00;;;;;;5115100;28;20460;-67
2021/09/18 12:27:33;;;;;;;2.83;2.45;;;22.50;75.10;;;;;;5115186;28;20027;-72
2021/09/18 12:30:07;;;;;;;3.13;2.42;;;22.40;73.70;;;;;;5114525;28;20349;-67
2021/09/18 12:32:33;;;;;;;4.70;2.60;;;22.50;75.00;;;;;;5115269;28;20024;-67
2021/09/18 12:35:08;;;;;;;2.85;2.05;;;22.40;74.30;;;;;;5115492;28;20054;-66
2021/09/18 12:37:38;;;;;;;3.55;2.30;;;22.40;75.10;;;;;;5113397;28;20118;-66
2021/09/18 12:40:20;;;;;;;2.33;2.13;;;22.40;75.30;;;;;;5114790;28;20102;-67
2021/09/18 12:43:11;;;;;;;2.40;2.15;;;22.50;75.60;;;;;;5114991;28;20096;-67
2021/09/18 12:45:37;;;;;;;2.88;2.20;;;22.50;76.30;;;;;;5114702;28;20031;-68
2021/09/18 12:48:15;;;;;;;3.67;2.38;;;22.60;76.50;;;;;;5115316;28;20023;-67
2021/09/18 12:50:55;;;;;;;3.30;2.13;;;22.50;72.70;;;;;;5115595;28;20031;-66
2021/09/18 12:53:27;;;;;;;3.88;2.10;;;22.30;74.10;;;;;;5114682;28;20476;-66
2021/09/18 12:56:09;;;;;;;4.15;2.40;;;22.30;74.80;;;;;;5114624;28;20034;-66
2021/09/18 12:58:36;;;;;;;4.03;2.58;;;22.40;75.50;;;;;;5113104;28;20478;-66